Ralph, Alabama
Current Conditions -  °F | °C
As of 2:53 AM on Wednesday 22 Oct 2014 (Local Time) from KTCL Reporting Station
Clear Clear  
Wind Chill: 52°   Ceiling: Unl
Heat Index: 52°   Visibility: 10mi
Dew Point: 48°   Wind: 6mph
Humidity: 86%   Direction: 30°NNE
Pressure: 30.08"   Gusts: NA
Location:  33.04°N, 87.77°W
Report Text: KTCL 220753Z AUTO 03005KT 10SM CLR 11/09 A3008 RMK AO2 SLP183 T01110089
Loading
Personal Weather Stations






























Interactive Weather Map New forecast layout! Learn more

10-Day Weather Forecast

Advertisements
Track Severe Weather on mobile